createdAt,value
2022-08-19T00:01:38.026Z,20.89
2022-08-19T00:04:07.569Z,20.82
2022-08-19T00:06:35.152Z,20.80
2022-08-19T00:09:02.173Z,20.76
2022-08-19T00:11:28.846Z,20.78
2022-08-19T00:13:57.507Z,20.88
2022-08-19T00:16:26.412Z,20.84
2022-08-19T00:18:54.735Z,20.83
2022-08-19T00:21:21.309Z,20.86
2022-08-19T00:23:48.301Z,20.88
2022-08-19T00:26:14.834Z,20.90
2022-08-19T00:28:41.333Z,20.90
2022-08-19T00:31:08.656Z,21.01
2022-08-19T00:33:35.443Z,21.02
2022-08-19T00:36:05.463Z,20.92
2022-08-19T00:38:37.306Z,20.97
2022-08-19T00:41:05.984Z,21.08
2022-08-19T00:43:33.135Z,21.12
2022-08-19T00:45:59.876Z,21.17
2022-08-19T00:48:26.335Z,21.23
2022-08-19T00:50:56.463Z,21.26
2022-08-19T00:53:27.352Z,21.24
2022-08-19T00:55:56.041Z,21.30
2022-08-19T00:58:28.324Z,21.33
2022-08-19T01:00:55.054Z,21.31
2022-08-19T01:03:24.553Z,21.17
2022-08-19T01:05:52.916Z,21.13
2022-08-19T01:08:21.323Z,21.08
2022-08-19T01:10:53.136Z,21.19
2022-08-19T01:13:22.139Z,21.18
2022-08-19T01:15:58.384Z,21.22
2022-08-19T01:18:27.450Z,21.21
2022-08-19T01:20:57.146Z,21.15
2022-08-19T01:23:43.268Z,21.11
2022-08-19T01:26:15.955Z,21.00
2022-08-19T01:28:45.269Z,21.04
2022-08-19T01:31:27.422Z,21.00
2022-08-19T01:33:56.258Z,21.02
2022-08-19T01:36:30.771Z,20.89
2022-08-19T01:38:59.145Z,20.86
2022-08-19T01:41:25.975Z,20.83
2022-08-19T01:44:17.127Z,20.80
2022-08-19T01:46:40.572Z,20.77
2022-08-19T01:49:08.369Z,20.63
2022-08-19T01:51:39.578Z,20.68
2022-08-19T01:54:07.841Z,20.73
2022-08-19T01:56:34.331Z,20.92
2022-08-19T01:59:04.808Z,20.89
2022-08-19T02:01:32.898Z,20.71
2022-08-19T02:04:01.585Z,20.80
2022-08-19T02:06:28.832Z,20.97
2022-08-19T02:08:57.369Z,20.88
2022-08-19T02:11:34.413Z,20.86
2022-08-19T02:14:04.606Z,20.85
2022-08-19T02:16:31.629Z,20.90
2022-08-19T02:19:01.386Z,20.82
2022-08-19T02:21:28.412Z,20.89
2022-08-19T02:23:55.130Z,20.78
2022-08-19T02:26:22.539Z,20.57
2022-08-19T02:28:49.526Z,20.53
2022-08-19T02:31:19.013Z,20.44
2022-08-19T02:33:46.435Z,20.54
2022-08-19T02:36:14.407Z,20.55
2022-08-19T02:38:42.712Z,20.57
2022-08-19T02:41:20.124Z,20.57
2022-08-19T02:44:22.749Z,20.55
2022-08-19T02:46:34.571Z,20.54
2022-08-19T02:49:05.809Z,20.50
2022-08-19T02:51:41.552Z,20.42
2022-08-19T02:54:10.119Z,20.45
2022-08-19T02:56:39.283Z,20.52
2022-08-19T02:59:11.796Z,20.56
2022-08-19T03:01:40.735Z,20.56
2022-08-19T03:04:09.231Z,20.57
2022-08-19T03:06:45.348Z,20.42
2022-08-19T03:09:12.752Z,20.29
2022-08-19T03:11:39.453Z,20.27
2022-08-19T03:14:07.935Z,20.24
2022-08-19T03:16:40.560Z,20.18
2022-08-19T03:19:06.979Z,20.23
2022-08-19T03:21:34.987Z,20.20
2022-08-19T03:24:07.582Z,20.14
2022-08-19T03:26:35.045Z,20.13
2022-08-19T03:29:05.868Z,20.19
2022-08-19T03:31:43.871Z,20.13
2022-08-19T03:34:16.674Z,20.18
2022-08-19T03:36:43.176Z,20.10
2022-08-19T03:39:10.833Z,20.08
2022-08-19T03:41:45.734Z,20.11
2022-08-19T03:44:17.011Z,20.12
2022-08-19T03:46:46.672Z,20.12
2022-08-19T03:49:13.975Z,20.10
2022-08-19T03:51:42.995Z,20.11
2022-08-19T03:54:12.574Z,20.05
2022-08-19T03:56:40.152Z,20.10
2022-08-19T03:59:09.092Z,20.18
2022-08-19T04:01:36.266Z,20.30
2022-08-19T04:04:03.441Z,20.37
2022-08-19T04:06:34.900Z,20.43
2022-08-19T04:09:04.609Z,20.32
2022-08-19T04:11:43.789Z,20.30
2022-08-19T04:14:14.385Z,20.26
2022-08-19T04:16:41.026Z,20.24
2022-08-19T04:19:07.721Z,20.17
2022-08-19T04:21:34.645Z,20.29
2022-08-19T04:24:02.247Z,20.42
2022-08-19T04:26:34.825Z,20.41
2022-08-19T04:29:06.535Z,20.41
2022-08-19T04:31:37.988Z,20.30
2022-08-19T04:34:08.375Z,20.19
2022-08-19T04:36:37.289Z,20.17
2022-08-19T04:39:09.186Z,20.12
2022-08-19T04:42:11.660Z,20.06
2022-08-19T04:44:39.860Z,20.13
2022-08-19T04:47:12.891Z,20.14
2022-08-19T04:49:39.296Z,20.33
2022-08-19T04:52:05.836Z,20.35
2022-08-19T04:54:38.230Z,20.45
2022-08-19T04:57:07.740Z,20.51
2022-08-19T04:59:34.649Z,20.57
2022-08-19T05:02:01.524Z,20.59
2022-08-19T05:04:29.576Z,20.68
2022-08-19T05:07:00.066Z,20.56
2022-08-19T05:09:28.765Z,20.58
2022-08-19T05:12:15.351Z,20.56
2022-08-19T05:14:41.994Z,20.58
2022-08-19T05:17:26.702Z,20.57
2022-08-19T05:20:13.298Z,20.56
2022-08-19T05:22:40.326Z,20.51
2022-08-19T05:25:12.923Z,20.49
2022-08-19T05:27:40.202Z,20.51
2022-08-19T05:30:07.187Z,20.51
2022-08-19T05:32:33.719Z,20.54
2022-08-19T05:35:00.317Z,20.43
2022-08-19T05:37:28.392Z,20.58
2022-08-19T05:39:55.765Z,20.68
2022-08-19T05:42:23.889Z,20.71
2022-08-19T05:44:51.759Z,20.80
2022-08-19T05:47:20.773Z,20.83
2022-08-19T05:49:48.254Z,20.86
2022-08-19T05:52:18.729Z,20.81
2022-08-19T05:54:51.470Z,20.72
2022-08-19T05:57:19.717Z,20.70
2022-08-19T05:59:49.105Z,20.69
2022-08-19T06:02:15.607Z,20.75
2022-08-19T06:04:43.821Z,20.66
2022-08-19T06:07:12.848Z,20.72
2022-08-19T06:09:41.114Z,20.80
2022-08-19T06:12:10.486Z,20.86
2022-08-19T06:14:40.236Z,20.92
2022-08-19T06:17:08.466Z,20.83
2022-08-19T06:19:34.916Z,20.83
2022-08-19T06:22:08.486Z,20.86
2022-08-19T06:24:36.111Z,20.87
2022-08-19T06:27:04.254Z,20.91
2022-08-19T06:29:31.130Z,20.83
2022-08-19T06:32:00.607Z,20.86
2022-08-19T06:34:29.797Z,20.80
2022-08-19T06:36:58.487Z,20.85
2022-08-19T06:39:28.050Z,20.93
2022-08-19T06:41:58.915Z,21.04
2022-08-19T06:44:27.656Z,20.98
2022-08-19T06:46:55.778Z,21.02
2022-08-19T06:49:23.465Z,21.14
2022-08-19T06:51:51.875Z,21.13
2022-08-19T06:54:20.099Z,20.96
2022-08-19T06:56:47.481Z,20.95
2022-08-19T06:59:17.624Z,20.85
2022-08-19T07:01:47.721Z,20.86
2022-08-19T07:04:21.845Z,20.95
2022-08-19T07:06:55.138Z,21.05
2022-08-19T07:09:22.047Z,21.00
2022-08-19T07:11:51.601Z,20.99
2022-08-19T07:14:20.390Z,21.06
2022-08-19T07:16:49.868Z,21.16
2022-08-19T07:19:18.645Z,21.27
2022-08-19T07:21:47.217Z,21.43
2022-08-19T07:24:13.765Z,21.45
2022-08-19T07:26:42.713Z,21.49
2022-08-19T07:29:10.729Z,21.49
2022-08-19T07:31:37.986Z,21.48
2022-08-19T07:34:10.291Z,21.55
2022-08-19T07:36:41.486Z,21.72
2022-08-19T07:39:20.749Z,21.82
2022-08-19T07:41:48.310Z,21.85
2022-08-19T07:44:16.674Z,21.92
2022-08-19T07:46:49.276Z,21.98
2022-08-19T07:49:20.249Z,22.04
2022-08-19T07:51:49.604Z,22.04
2022-08-19T07:54:17.000Z,22.02
2022-08-19T07:56:43.525Z,22.10
2022-08-19T07:59:10.188Z,22.19
2022-08-19T08:01:41.670Z,22.24
2022-08-19T08:04:26.969Z,22.25
2022-08-19T08:07:12.799Z,22.34
2022-08-19T08:09:42.678Z,22.46
2022-08-19T08:12:33.499Z,22.49
2022-08-19T08:15:08.279Z,22.48
2022-08-19T08:17:49.638Z,22.61
2022-08-19T08:20:18.858Z,22.69
2022-08-19T08:23:05.576Z,22.80
2022-08-19T08:25:34.207Z,22.96
2022-08-19T08:28:01.314Z,23.04
2022-08-19T08:30:32.883Z,23.10
2022-08-19T08:33:00.292Z,23.21
2022-08-19T08:35:28.948Z,23.29
2022-08-19T08:37:56.696Z,23.25
2022-08-19T08:40:28.872Z,23.34
2022-08-19T08:43:07.320Z,23.30
2022-08-19T08:45:46.397Z,23.40
2022-08-19T08:48:47.726Z,23.45
2022-08-19T08:51:31.926Z,23.42
2022-08-19T08:54:05.428Z,23.50
2022-08-19T08:59:13.685Z,23.84
2022-08-19T09:01:40.552Z,23.98
2022-08-19T09:04:08.442Z,24.16
2022-08-19T09:06:54.251Z,24.59
2022-08-19T09:09:41.999Z,25.21
2022-08-19T09:12:27.063Z,25.80
2022-08-19T09:15:02.442Z,25.71
2022-08-19T09:17:36.418Z,25.14
2022-08-19T09:20:09.405Z,25.09
2022-08-19T09:22:37.283Z,25.25
2022-08-19T09:25:06.641Z,25.54
2022-08-19T09:27:42.218Z,25.35
2022-08-19T09:30:14.434Z,25.43
2022-08-19T09:32:43.173Z,25.34
2022-08-19T09:35:10.578Z,25.37
2022-08-19T09:37:37.500Z,25.42
2022-08-19T09:40:05.463Z,25.70
2022-08-19T09:42:35.455Z,26.32
2022-08-19T09:45:04.967Z,26.88
2022-08-19T09:47:31.813Z,27.30
2022-08-19T09:49:58.978Z,27.39
2022-08-19T09:52:25.968Z,27.20
2022-08-19T09:54:59.563Z,27.18
2022-08-19T09:57:26.008Z,27.50
2022-08-19T09:59:52.434Z,27.67
2022-08-19T10:02:22.322Z,27.79
2022-08-19T10:05:07.788Z,27.73
2022-08-19T10:07:36.537Z,27.69
2022-08-19T10:10:07.693Z,27.48
2022-08-19T10:12:35.278Z,27.39
2022-08-19T10:15:02.398Z,27.35
2022-08-19T10:17:31.632Z,27.14
2022-08-19T10:20:00.894Z,27.18
2022-08-19T10:22:27.445Z,27.02
2022-08-19T10:24:54.562Z,26.96
2022-08-19T10:27:21.637Z,27.11
2022-08-19T10:29:48.927Z,27.46
2022-08-19T10:32:16.062Z,27.41
2022-08-19T10:34:48.024Z,27.42
2022-08-19T10:37:23.770Z,27.66
2022-08-19T10:39:55.485Z,27.67
2022-08-19T10:42:22.277Z,27.59
2022-08-19T10:44:49.069Z,27.73
2022-08-19T10:47:25.059Z,27.57
2022-08-19T10:50:13.457Z,27.99
2022-08-19T10:52:48.907Z,28.13
2022-08-19T10:55:36.262Z,28.41
2022-08-19T10:58:03.007Z,28.67
2022-08-19T11:00:31.719Z,28.75
2022-08-19T11:02:58.439Z,28.67
2022-08-19T11:05:24.957Z,28.62
2022-08-19T11:07:52.717Z,28.45
2022-08-19T11:10:21.777Z,28.16
2022-08-19T11:12:49.302Z,27.96
2022-08-19T11:15:16.177Z,28.13
2022-08-19T11:17:44.732Z,28.19
2022-08-19T11:20:13.509Z,28.09
2022-08-19T11:22:41.880Z,27.87
2022-08-19T11:25:11.375Z,27.75
2022-08-19T11:27:45.367Z,27.47
2022-08-19T11:30:14.326Z,27.47
2022-08-19T11:32:45.899Z,27.49
2022-08-19T11:35:15.197Z,27.28
2022-08-19T11:37:41.662Z,27.16
2022-08-19T11:40:08.871Z,27.19
2022-08-19T11:42:53.875Z,27.45
2022-08-19T11:45:20.531Z,27.77
2022-08-19T11:47:48.255Z,27.94
2022-08-19T11:50:15.969Z,27.95
2022-08-19T11:52:43.596Z,27.95
2022-08-19T11:55:10.324Z,28.26
2022-08-19T11:57:36.744Z,28.34
2022-08-19T12:00:06.894Z,28.41
2022-08-19T12:02:33.341Z,28.40
2022-08-19T12:05:03.293Z,28.43
2022-08-19T12:07:32.513Z,28.23
2022-08-19T12:09:58.919Z,27.74
2022-08-19T12:12:25.708Z,27.59
2022-08-19T12:14:57.406Z,27.39
2022-08-19T12:17:26.044Z,27.30
2022-08-19T12:19:52.633Z,27.21
2022-08-19T12:22:19.694Z,27.08
2022-08-19T12:24:46.132Z,27.06
2022-08-19T12:27:13.078Z,27.04
2022-08-19T12:29:39.791Z,26.91
2022-08-19T12:32:06.200Z,26.70
2022-08-19T12:34:33.587Z,26.64
2022-08-19T12:37:02.873Z,26.72
2022-08-19T12:39:29.282Z,26.74
2022-08-19T12:41:55.734Z,26.81
2022-08-19T12:44:28.749Z,26.84
2022-08-19T12:46:56.818Z,26.96
2022-08-19T12:49:45.706Z,27.22
2022-08-19T12:52:16.182Z,27.50
2022-08-19T12:54:44.149Z,27.60
2022-08-19T12:57:11.923Z,27.85
2022-08-19T12:59:39.425Z,28.01
2022-08-19T13:02:07.789Z,28.12
2022-08-19T13:04:37.238Z,28.11
2022-08-19T13:07:04.657Z,28.05
2022-08-19T13:09:31.096Z,28.11
2022-08-19T13:11:57.792Z,28.24
2022-08-19T13:14:24.271Z,28.37
2022-08-19T13:16:53.547Z,28.35
2022-08-19T13:19:21.990Z,28.56
2022-08-19T13:21:50.906Z,28.60
2022-08-19T13:24:31.394Z,28.63
2022-08-19T13:27:01.759Z,28.73
2022-08-19T13:29:47.117Z,28.72
2022-08-19T13:32:32.032Z,28.73
2022-08-19T13:34:58.556Z,28.82
2022-08-19T13:37:42.104Z,28.96
2022-08-19T13:40:22.582Z,28.92
2022-08-19T13:42:51.507Z,28.96
2022-08-19T13:45:23.845Z,28.99
2022-08-19T13:47:57.012Z,29.12
2022-08-19T13:50:32.327Z,29.25
2022-08-19T13:52:58.877Z,29.40
2022-08-19T13:55:26.344Z,29.54
2022-08-19T13:57:55.089Z,29.53
2022-08-19T14:00:24.814Z,29.38
2022-08-19T14:02:53.452Z,29.30
2022-08-19T14:05:21.417Z,29.16
2022-08-19T14:07:49.048Z,29.00
2022-08-19T14:10:16.389Z,29.02
2022-08-19T14:12:43.472Z,29.05
2022-08-19T14:15:12.546Z,29.02
2022-08-19T14:17:41.185Z,29.01
2022-08-19T14:20:10.745Z,28.87
2022-08-19T14:22:39.303Z,28.94
2022-08-19T14:25:08.563Z,28.87
2022-08-19T14:27:36.300Z,28.80
2022-08-19T14:30:05.034Z,28.70
2022-08-19T14:32:31.431Z,28.74
2022-08-19T14:34:57.827Z,28.73
2022-08-19T14:37:24.291Z,28.75
2022-08-19T14:39:51.776Z,28.79
2022-08-19T14:42:20.021Z,28.81
2022-08-19T14:44:46.582Z,28.79
2022-08-19T14:47:13.370Z,28.81
2022-08-19T14:49:41.217Z,28.84
2022-08-19T14:52:11.279Z,28.83
2022-08-19T14:54:37.675Z,28.72
2022-08-19T14:57:04.290Z,28.42
2022-08-19T14:59:30.741Z,28.35
2022-08-19T15:01:57.270Z,28.44
2022-08-19T15:04:23.735Z,28.37
2022-08-19T15:06:51.718Z,28.32
2022-08-19T15:09:18.193Z,28.26
2022-08-19T15:11:44.775Z,27.98
2022-08-19T15:14:11.266Z,27.73
2022-08-19T15:16:38.967Z,27.71
2022-08-19T15:19:05.391Z,27.69
2022-08-19T15:21:31.899Z,27.67
2022-08-19T15:23:59.550Z,27.59
2022-08-19T15:26:28.546Z,27.65
2022-08-19T15:28:55.033Z,27.65
2022-08-19T15:31:25.369Z,27.65
2022-08-19T15:33:58.818Z,27.62
2022-08-19T15:36:27.329Z,27.61
2022-08-19T15:38:54.217Z,27.67
2022-08-19T15:41:23.948Z,27.61
2022-08-19T15:44:03.862Z,27.66
2022-08-19T15:46:33.392Z,27.66
2022-08-19T15:49:00.693Z,27.66
2022-08-19T15:51:30.323Z,27.69
2022-08-19T15:53:57.575Z,27.75
2022-08-19T15:56:27.198Z,27.81
2022-08-19T15:59:12.771Z,27.81
2022-08-19T16:01:57.663Z,27.82
2022-08-19T16:04:43.090Z,27.85
2022-08-19T16:07:10.210Z,27.86
2022-08-19T16:09:36.638Z,27.91
2022-08-19T16:12:05.852Z,27.93
2022-08-19T16:14:35.158Z,28.01
2022-08-19T16:17:01.911Z,27.92
2022-08-19T16:19:28.325Z,27.87
2022-08-19T16:21:56.393Z,27.90
2022-08-19T16:24:25.539Z,27.93
2022-08-19T16:26:52.723Z,27.95
2022-08-19T16:29:33.278Z,27.97
2022-08-19T16:32:01.034Z,28.00
2022-08-19T16:34:29.794Z,28.03
2022-08-19T16:36:56.227Z,28.03
2022-08-19T16:39:23.691Z,28.02
2022-08-19T16:41:50.963Z,28.07
2022-08-19T16:44:19.432Z,28.07
2022-08-19T16:46:57.347Z,28.12
2022-08-19T16:49:53.100Z,28.03
2022-08-19T16:52:13.019Z,28.11
2022-08-19T16:54:41.808Z,28.07
2022-08-19T16:57:11.752Z,28.07
2022-08-19T16:59:39.456Z,27.87
2022-08-19T17:02:15.337Z,27.75
2022-08-19T17:04:41.836Z,27.81
2022-08-19T17:07:09.761Z,27.80
2022-08-19T17:09:36.705Z,27.83
2022-08-19T17:12:04.708Z,27.76
2022-08-19T17:14:31.085Z,27.72
2022-08-19T17:16:57.590Z,27.66
2022-08-19T17:19:24.019Z,27.66
2022-08-19T17:21:50.446Z,27.68
2022-08-19T17:24:17.046Z,27.75
2022-08-19T17:26:43.872Z,27.68
2022-08-19T17:29:10.434Z,27.57
2022-08-19T17:31:37.361Z,27.50
2022-08-19T17:34:04.541Z,27.49
2022-08-19T17:36:32.546Z,27.53
2022-08-19T17:39:00.691Z,27.48
2022-08-19T17:41:28.723Z,27.40
2022-08-19T17:43:55.318Z,27.45
2022-08-19T17:46:21.966Z,27.42
2022-08-19T17:48:52.968Z,27.38
2022-08-19T17:51:41.933Z,27.36
2022-08-19T17:54:15.226Z,27.33
2022-08-19T17:56:42.430Z,27.34
2022-08-19T17:59:13.979Z,27.34
2022-08-19T18:01:53.591Z,27.30
2022-08-19T18:04:25.481Z,27.29
2022-08-19T18:06:54.764Z,27.27
2022-08-19T18:09:42.353Z,27.23
2022-08-19T18:12:12.748Z,27.10
2022-08-19T18:14:40.499Z,27.06
2022-08-19T18:17:13.167Z,27.08
2022-08-19T18:19:43.297Z,27.07
2022-08-19T18:22:12.725Z,27.01
2022-08-19T18:24:41.465Z,26.93
2022-08-19T18:27:07.973Z,26.88
2022-08-19T18:29:38.131Z,26.81
2022-08-19T18:32:05.496Z,26.78
2022-08-19T18:34:31.913Z,26.69
2022-08-19T18:36:58.307Z,26.66
2022-08-19T18:39:44.418Z,26.61
2022-08-19T18:42:36.925Z,26.59
2022-08-19T18:45:27.903Z,26.49
2022-08-19T18:48:26.543Z,26.34
2022-08-19T18:50:56.064Z,26.27
2022-08-19T18:53:22.503Z,26.25
2022-08-19T18:55:51.870Z,26.22
2022-08-19T18:58:18.288Z,26.13
2022-08-19T19:00:44.817Z,26.06
2022-08-19T19:03:11.688Z,25.94
2022-08-19T19:05:39.883Z,25.93
2022-08-19T19:08:07.120Z,25.85
2022-08-19T19:10:35.414Z,25.86
2022-08-19T19:13:02.012Z,25.76
2022-08-19T19:15:29.392Z,25.71
2022-08-19T19:17:56.044Z,25.63
2022-08-19T19:20:36.159Z,25.58
2022-08-19T19:23:03.746Z,25.49
2022-08-19T19:25:50.249Z,25.45
2022-08-19T19:28:16.736Z,25.42
2022-08-19T19:30:43.193Z,25.42
2022-08-19T19:33:09.608Z,25.28
2022-08-19T19:35:36.030Z,25.26
2022-08-19T19:38:02.437Z,25.25
2022-08-19T19:40:29.369Z,25.18
2022-08-19T19:42:55.893Z,25.13
2022-08-19T19:45:23.322Z,25.10
2022-08-19T19:47:50.176Z,25.05
2022-08-19T19:50:17.912Z,25.11
2022-08-19T19:52:45.893Z,25.10
2022-08-19T19:55:17.811Z,25.10
2022-08-19T19:57:48.738Z,25.06
2022-08-19T20:00:18.715Z,25.04
2022-08-19T20:02:49.279Z,25.02
2022-08-19T20:05:19.135Z,24.98
2022-08-19T20:08:03.976Z,24.96
2022-08-19T20:10:32.273Z,24.90
2022-08-19T20:13:02.321Z,24.86
2022-08-19T20:15:29.391Z,24.79
2022-08-19T20:17:55.911Z,24.74
2022-08-19T20:20:23.565Z,24.67
2022-08-19T20:22:50.027Z,24.58
2022-08-19T20:25:18.840Z,24.55
2022-08-19T20:27:49.017Z,24.56
2022-08-19T20:30:19.395Z,24.59
2022-08-19T20:32:46.883Z,24.46
2022-08-19T20:35:15.225Z,24.35
2022-08-19T20:37:41.643Z,24.40
2022-08-19T20:40:10.039Z,24.33
2022-08-19T20:42:40.349Z,24.32
2022-08-19T20:45:21.635Z,24.23
2022-08-19T20:47:58.611Z,24.12
2022-08-19T20:50:26.062Z,24.09
2022-08-19T20:52:56.418Z,24.15
2022-08-19T20:55:22.971Z,23.97
2022-08-19T20:57:50.069Z,23.92
2022-08-19T21:00:16.686Z,23.90
2022-08-19T21:02:43.096Z,23.84
2022-08-19T21:05:09.656Z,23.92
2022-08-19T21:07:39.002Z,23.89
2022-08-19T21:10:06.804Z,23.93
2022-08-19T21:12:33.524Z,23.87
2022-08-19T21:15:00.125Z,23.90
2022-08-19T21:17:26.524Z,23.84
2022-08-19T21:19:52.966Z,23.89
2022-08-19T21:22:19.412Z,23.84
2022-08-19T21:24:45.806Z,23.67
2022-08-19T21:27:12.280Z,23.67
2022-08-19T21:29:40.445Z,23.75
2022-08-19T21:32:07.055Z,23.68
2022-08-19T21:34:33.487Z,23.51
2022-08-19T21:36:59.975Z,23.42
2022-08-19T21:39:26.472Z,23.46
2022-08-19T21:41:53.038Z,23.35
2022-08-19T21:44:19.555Z,23.30
2022-08-19T21:46:45.990Z,23.18
2022-08-19T21:49:16.999Z,23.26
2022-08-19T21:51:43.413Z,23.28
2022-08-19T21:54:14.204Z,23.15
2022-08-19T21:56:41.055Z,23.19
2022-08-19T21:59:07.634Z,23.19
2022-08-19T22:01:34.151Z,22.95
2022-08-19T22:04:00.625Z,22.81
2022-08-19T22:06:27.057Z,22.75
2022-08-19T22:08:56.686Z,22.82
2022-08-19T22:11:24.729Z,22.80
2022-08-19T22:13:56.079Z,22.76
2022-08-19T22:16:24.160Z,22.65
2022-08-19T22:18:53.956Z,22.64
2022-08-19T22:21:39.654Z,22.58
2022-08-19T22:24:06.560Z,22.51
2022-08-19T22:26:33.017Z,22.59
2022-08-19T22:29:00.696Z,22.65
2022-08-19T22:31:28.527Z,22.73
2022-08-19T22:33:55.709Z,22.76
2022-08-19T22:36:22.115Z,22.76
2022-08-19T22:38:48.626Z,22.77
2022-08-19T22:41:16.242Z,22.78
2022-08-19T22:43:42.972Z,22.69
2022-08-19T22:46:16.996Z,22.71
2022-08-19T22:48:44.615Z,22.66
2022-08-19T22:51:29.388Z,22.61
2022-08-19T22:53:57.176Z,22.37
2022-08-19T22:56:23.729Z,22.24
2022-08-19T22:58:52.972Z,22.01
2022-08-19T23:01:27.255Z,22.08
2022-08-19T23:03:58.422Z,22.04
2022-08-19T23:06:26.960Z,21.93
2022-08-19T23:08:59.828Z,21.91
2022-08-19T23:11:26.326Z,21.85
2022-08-19T23:13:53.097Z,21.75
2022-08-19T23:16:19.539Z,21.67
2022-08-19T23:18:46.816Z,21.62
2022-08-19T23:21:13.419Z,21.58
2022-08-19T23:23:41.433Z,21.52
2022-08-19T23:26:11.746Z,21.42
2022-08-19T23:28:57.251Z,21.26
2022-08-19T23:31:26.493Z,21.18
2022-08-19T23:33:53.435Z,21.25
2022-08-19T23:36:21.031Z,21.28
2022-08-19T23:38:49.608Z,21.31
2022-08-19T23:41:18.555Z,21.29
2022-08-19T23:43:45.653Z,21.30
2022-08-19T23:46:27.273Z,21.26
2022-08-19T23:48:55.566Z,21.21
2022-08-19T23:51:22.061Z,21.27
2022-08-19T23:53:48.487Z,21.33
2022-08-19T23:56:14.956Z,21.19
2022-08-19T23:58:41.427Z,21.19
